Aérodrome :
LOGIN :

S'inscrire | Disclaimer

   EN    FR    IT 

 










Légende :    VFR   VFR Marginal   IFR   IFR Intensif   IFR Très Intensif
Visi : 
Plafond : 
>= 8 km
>= 3000ft
5 à 8 km
1000 à 3000 ft
1500m à 5 km
500 à 1000 ft
800 à 1500m
200 à 500 ft
< 800m
< 200 ft
Symboles :   Orages  Brouillard  Fortes neiges  Fortes précipitations  Vent > 20 kt
SIGMETs :   Divers  Orages  Givrage  Turbulence  Onde Orograph.  Cendres Volcan.






- Altitude de l'aérodrome : 821 ft
- Code IATA : LYS


LFLL - Lyon St Exupéry / Satolas

DERNIER METAR :
  • 201907Z 26005KT 6000 -TSRA FEW029 FEW043CB BKN063 OVC076 14/14 Q1009 NOSIG

METARs EXPIRÉS :
  • 201830Z 23008KT 200V270 4200 RA BR FEW013 FEW043TCU BKN050 OVC063 14/14 Q1010 NOSIG
  • 201800Z 25019G29KT 4200 RA BR FEW018 FEW040CB BKN050 OVC060 14/13 Q1009 NOSIG
  • 201730Z 19016KT 160V220 9999 FEW050CB SCT100 BKN140 24/10 Q1005 BECMG 2000 TSRA BKN045CB
  • 201700Z 18012KT 9999 FEW050CB SCT080 BKN200 24/11 Q1004 BECMG 2000 TSRA BKN045CB
  • 201630Z 18010KT 9999 FEW050TCU SCT080 BKN220 22/12 Q1004 BECMG 2000 TSRA BKN045CB

TAF TAF LFLL
Valide du 20 à 18h jusqu'au 22 à 00h UTC


201700Z 2018/2124 18015G30KT 9999 RA FEW035CB OVC040
TEMPO 2018/2023 2000 TSRA BKN015 BKN030CB
PROB40
TEMPO 2018/2019 25025G45KT
BECMG 2101/2104 VRB03KT NSW FEW015 OVC040
BECMG 2108/2110 01005KT -RA BKN010 OVC040



MET'MAP, la Météo Aéronautique d'un coup d'oeil ! - Copyright ORBIFLY Décembre 2007 - Disclaimer

ORBIFLY MET'MAP TEAM :

Programmation & Développement : Alexandra Zaïnal
Conception & Développement : Baudouin d'Aumeries
Co-Programmation & Développement : Marc-Olivier Méhu
Soutien technique & logistique : Manuel Goepfert

Contact : metmap@orbifly.com




SOURCES & CREDITS :

   NOAA